createdAt,value
2023-01-19T00:02:02.671Z,2.50
2023-01-19T00:05:04.552Z,2.80
2023-01-19T00:08:14.593Z,2.70
2023-01-19T00:11:19.435Z,2.50
2023-01-19T00:14:21.006Z,3.10
2023-01-19T00:17:22.630Z,2.50
2023-01-19T00:20:24.128Z,2.40
2023-01-19T00:23:25.637Z,3.00
2023-01-19T00:26:27.392Z,2.80
2023-01-19T00:29:33.261Z,3.80
2023-01-19T00:32:34.914Z,2.90
2023-01-19T00:35:36.577Z,2.60
2023-01-19T00:38:38.951Z,1.10
2023-01-19T00:41:59.022Z,2.80
2023-01-19T00:45:00.553Z,2.70
2023-01-19T00:48:02.149Z,4.00
2023-01-19T00:51:03.822Z,2.40
2023-01-19T00:54:10.350Z,2.70
2023-01-19T00:57:12.188Z,2.70
2023-01-19T01:00:15.198Z,2.90
2023-01-19T01:03:16.764Z,2.70
2023-01-19T01:06:18.273Z,2.50
2023-01-19T01:09:19.760Z,2.40
2023-01-19T01:12:21.232Z,1.80
2023-01-19T01:15:23.140Z,2.50
2023-01-19T01:18:25.271Z,2.70
2023-01-19T01:21:27.697Z,2.40
2023-01-19T01:24:29.256Z,2.40
2023-01-19T01:27:30.724Z,2.30
2023-01-19T01:30:32.261Z,2.60
2023-01-19T01:33:41.011Z,2.50
2023-01-19T01:36:43.198Z,2.50
2023-01-19T01:39:44.674Z,2.60
2023-01-19T01:42:46.308Z,2.50
2023-01-19T01:45:48.435Z,2.90
2023-01-19T01:49:00.893Z,2.70
2023-01-19T01:52:02.709Z,2.60
2023-01-19T01:55:06.857Z,2.50
2023-01-19T01:58:09.104Z,2.90
2023-01-19T02:01:29.386Z,2.70
2023-01-19T02:04:31.542Z,2.80
2023-01-19T02:07:57.022Z,2.90
2023-01-19T02:11:17.726Z,2.40
2023-01-19T02:14:19.205Z,3.10
2023-01-19T02:17:20.982Z,2.80
2023-01-19T02:20:24.069Z,2.60
2023-01-19T02:23:42.500Z,2.90
2023-01-19T02:26:45.460Z,2.70
2023-01-19T02:29:46.963Z,2.80
2023-01-19T02:32:48.916Z,2.90
2023-01-19T02:35:52.029Z,2.50
2023-01-19T02:38:56.044Z,2.80
2023-01-19T02:42:01.289Z,2.50
2023-01-19T02:45:06.880Z,2.50
2023-01-19T02:48:08.478Z,2.80
2023-01-19T02:51:17.912Z,2.40
2023-01-19T02:54:27.375Z,2.50
2023-01-19T02:57:28.879Z,3.10
2023-01-19T03:00:48.799Z,2.90
2023-01-19T03:04:00.633Z,1.10
2023-01-19T03:07:10.616Z,2.60
2023-01-19T03:10:31.053Z,2.50
2023-01-19T03:13:47.077Z,2.60
2023-01-19T03:16:55.477Z,2.80
2023-01-19T03:19:57.420Z,2.50
2023-01-19T03:23:01.187Z,2.50
2023-01-19T03:26:05.089Z,4.20
2023-01-19T03:29:08.368Z,2.50
2023-01-19T03:32:12.744Z,2.80
2023-01-19T03:35:15.971Z,2.40
2023-01-19T03:38:20.669Z,2.60
2023-01-19T03:41:23.097Z,2.60
2023-01-19T03:44:26.098Z,2.70
2023-01-19T03:47:27.776Z,2.60
2023-01-19T03:50:30.064Z,2.30
2023-01-19T03:53:31.585Z,2.50
2023-01-19T03:56:33.134Z,2.70
2023-01-19T03:59:35.072Z,2.80
2023-01-19T04:02:36.557Z,3.20
2023-01-19T04:05:39.426Z,3.10
2023-01-19T04:08:40.959Z,2.60
2023-01-19T04:11:42.565Z,2.60
2023-01-19T04:14:44.051Z,2.70
2023-01-19T04:17:45.534Z,2.20
2023-01-19T04:20:46.983Z,2.10
2023-01-19T04:23:49.800Z,2.20
2023-01-19T04:26:52.353Z,1.80
2023-01-19T04:29:53.822Z,2.40
2023-01-19T04:32:56.171Z,2.10
2023-01-19T04:35:58.282Z,2.20
2023-01-19T04:38:59.815Z,2.00
2023-01-19T04:42:01.540Z,1.80
2023-01-19T04:45:03.076Z,2.20
2023-01-19T04:48:05.735Z,2.00
2023-01-19T04:51:07.208Z,2.00
2023-01-19T04:54:09.121Z,2.10
2023-01-19T04:57:10.743Z,1.70
2023-01-19T05:00:12.643Z,2.20
2023-01-19T05:03:14.215Z,1.80
2023-01-19T05:06:15.985Z,1.90
2023-01-19T05:09:17.448Z,2.00
2023-01-19T05:12:19.096Z,2.10
2023-01-19T05:15:20.617Z,1.70
2023-01-19T05:18:22.536Z,1.70
2023-01-19T05:21:24.019Z,1.50
2023-01-19T05:24:25.535Z,1.90
2023-01-19T05:27:27.100Z,1.80
2023-01-19T05:30:28.704Z,1.60
2023-01-19T05:33:30.243Z,1.80
2023-01-19T05:36:32.638Z,1.80
2023-01-19T05:39:34.174Z,1.60
2023-01-19T05:42:36.214Z,2.50
2023-01-19T05:45:41.025Z,1.50
2023-01-19T05:48:42.544Z,1.50
2023-01-19T05:51:45.382Z,1.40
2023-01-19T05:54:48.081Z,1.80
2023-01-19T05:57:49.552Z,1.90
2023-01-19T06:00:51.077Z,1.70
2023-01-19T06:03:52.598Z,1.60
2023-01-19T06:06:54.096Z,1.60
2023-01-19T06:09:55.557Z,1.50
2023-01-19T06:12:57.060Z,1.90
2023-01-19T06:16:02.319Z,1.60
2023-01-19T06:19:04.186Z,2.10
2023-01-19T06:22:05.952Z,1.70
2023-01-19T06:25:07.636Z,1.30
2023-01-19T06:28:09.155Z,1.90
2023-01-19T06:31:10.782Z,1.90
2023-01-19T06:34:12.262Z,1.70
2023-01-19T06:37:14.819Z,1.60
2023-01-19T06:40:16.462Z,1.70
2023-01-19T06:43:18.486Z,1.50
2023-01-19T06:46:19.966Z,1.70
2023-01-19T06:49:21.445Z,1.80
2023-01-19T06:52:22.950Z,1.60
2023-01-19T06:55:24.492Z,1.60
2023-01-19T06:58:29.254Z,3.00
2023-01-19T07:01:30.788Z,1.30
2023-01-19T07:04:33.743Z,1.60
2023-01-19T07:07:35.529Z,1.80
2023-01-19T07:11:22.362Z,1.60
2023-01-19T07:13:59.006Z,1.80
2023-01-19T07:17:01.573Z,2.10
2023-01-19T07:20:03.475Z,1.70
2023-01-19T07:23:04.986Z,1.70
2023-01-19T07:26:06.540Z,1.60
2023-01-19T07:29:08.028Z,1.30
2023-01-19T07:32:09.588Z,1.80
2023-01-19T07:35:11.108Z,1.80
2023-01-19T07:38:12.575Z,2.20
2023-01-19T07:41:14.226Z,1.90
2023-01-19T07:44:15.747Z,1.80
2023-01-19T07:47:17.294Z,2.00
2023-01-19T07:50:21.314Z,2.30
2023-01-19T07:53:22.837Z,2.10
2023-01-19T07:56:24.669Z,3.10
2023-01-19T07:59:26.720Z,3.60
2023-01-19T08:02:28.248Z,2.00
2023-01-19T08:05:29.724Z,2.30
2023-01-19T08:08:32.107Z,2.20
2023-01-19T08:11:33.637Z,2.10
2023-01-19T08:14:35.154Z,2.10
2023-01-19T08:17:38.623Z,2.00
2023-01-19T08:20:40.152Z,2.10
2023-01-19T08:23:41.800Z,1.90
2023-01-19T08:26:43.432Z,2.40
2023-01-19T08:29:44.919Z,2.40
2023-01-19T08:32:46.402Z,2.20
2023-01-19T08:35:49.065Z,1.90
2023-01-19T08:38:50.896Z,2.10
2023-01-19T08:41:52.482Z,2.30
2023-01-19T08:44:58.015Z,2.40
2023-01-19T08:47:59.991Z,1.90
2023-01-19T08:51:01.579Z,2.50
2023-01-19T08:54:03.063Z,2.60
2023-01-19T08:57:04.537Z,4.10
2023-01-19T09:00:08.073Z,2.10
2023-01-19T09:03:11.831Z,2.40
2023-01-19T09:06:14.857Z,2.60
2023-01-19T09:09:16.674Z,3.70
2023-01-19T09:12:18.647Z,2.60
2023-01-19T09:15:20.497Z,2.20
2023-01-19T09:18:22.572Z,2.50
2023-01-19T09:21:24.475Z,2.40
2023-01-19T09:24:26.463Z,2.70
2023-01-19T09:27:28.411Z,2.70
2023-01-19T09:30:30.537Z,2.50
2023-01-19T09:33:32.238Z,2.90
2023-01-19T09:36:35.033Z,2.90
2023-01-19T09:39:36.726Z,3.50
2023-01-19T09:42:47.291Z,2.70
2023-01-19T09:45:52.125Z,2.50
2023-01-19T09:48:56.662Z,3.00
2023-01-19T09:51:58.501Z,3.00
2023-01-19T09:55:00.165Z,2.90
2023-01-19T09:58:03.616Z,4.70
2023-01-19T10:01:10.234Z,3.50
2023-01-19T10:04:25.732Z,2.90
2023-01-19T10:07:45.995Z,2.80
2023-01-19T10:10:51.783Z,2.60
2023-01-19T10:13:54.295Z,2.70
2023-01-19T10:17:07.635Z,2.70
2023-01-19T10:20:14.884Z,2.70
2023-01-19T10:23:25.259Z,2.70
2023-01-19T10:26:42.618Z,2.60
2023-01-19T10:29:45.094Z,3.00
2023-01-19T10:32:46.831Z,2.60
2023-01-19T10:35:48.730Z,2.90
2023-01-19T10:38:50.798Z,2.90
2023-01-19T10:41:53.416Z,3.00
2023-01-19T10:44:55.475Z,2.60
2023-01-19T10:48:04.771Z,2.80
2023-01-19T10:51:06.344Z,3.30
2023-01-19T10:54:12.813Z,3.00
2023-01-19T10:57:21.036Z,3.00
2023-01-19T11:00:28.651Z,3.30
2023-01-19T11:03:31.098Z,3.20
2023-01-19T11:06:33.818Z,3.00
2023-01-19T11:09:35.320Z,2.80
2023-01-19T11:12:40.729Z,3.20
2023-01-19T11:16:05.371Z,3.20
2023-01-19T11:19:15.734Z,3.10
2023-01-19T11:22:24.730Z,3.10
2023-01-19T11:25:30.848Z,3.10
2023-01-19T11:28:36.819Z,3.10
2023-01-19T11:31:38.375Z,3.10
2023-01-19T11:34:39.926Z,3.00
2023-01-19T11:37:42.781Z,3.00
2023-01-19T11:40:51.859Z,3.30
2023-01-19T11:43:54.991Z,3.30
2023-01-19T11:46:58.291Z,3.40
2023-01-19T11:50:18.396Z,3.50
2023-01-19T11:53:24.297Z,3.50
2023-01-19T11:56:28.874Z,3.50
2023-01-19T11:59:30.395Z,3.50
2023-01-19T12:02:40.747Z,3.30
2023-01-19T12:05:44.752Z,3.50
2023-01-19T12:08:51.363Z,3.20
2023-01-19T12:12:07.477Z,3.10
2023-01-19T12:15:21.055Z,3.40
2023-01-19T12:18:24.131Z,3.60
2023-01-19T12:21:25.654Z,3.70
2023-01-19T12:24:35.376Z,3.40
2023-01-19T12:27:41.975Z,3.70
2023-01-19T12:30:43.757Z,3.70
2023-01-19T12:33:45.853Z,3.50
2023-01-19T12:36:48.948Z,3.30
2023-01-19T12:39:50.443Z,3.20
2023-01-19T12:43:03.109Z,3.50
2023-01-19T12:46:21.141Z,3.50
2023-01-19T12:49:40.579Z,4.70
2023-01-19T12:52:53.309Z,3.90
2023-01-19T12:56:25.159Z,4.90
2023-01-19T13:14:33.900Z,4.40
2023-01-19T13:17:51.192Z,3.50
2023-01-19T13:20:54.589Z,3.90
2023-01-19T13:23:57.724Z,3.90
2023-01-19T13:27:03.297Z,3.90
2023-01-19T13:30:12.427Z,3.90
2023-01-19T13:33:19.458Z,3.90
2023-01-19T13:36:27.515Z,4.20
2023-01-19T13:39:30.776Z,4.00
2023-01-19T13:42:36.780Z,4.30
2023-01-19T13:45:39.951Z,4.20
2023-01-19T13:48:52.017Z,4.30
2023-01-19T13:52:12.732Z,4.20
2023-01-19T13:55:15.309Z,4.10
2023-01-19T13:58:21.038Z,4.20
2023-01-19T14:01:23.045Z,4.40
2023-01-19T14:04:26.190Z,4.60
2023-01-19T14:07:27.715Z,4.40
2023-01-19T14:10:31.123Z,4.30
2023-01-19T14:13:33.587Z,3.80
2023-01-19T14:16:35.549Z,4.20
2023-01-19T14:19:53.390Z,4.40
2023-01-19T14:22:55.042Z,4.10
2023-01-19T14:25:57.475Z,4.40
2023-01-19T14:29:06.735Z,4.30
2023-01-19T14:32:15.899Z,4.00
2023-01-19T14:35:24.211Z,3.90
2023-01-19T14:38:25.699Z,4.00
2023-01-19T14:41:35.926Z,3.60
2023-01-19T14:44:38.352Z,4.00
2023-01-19T14:47:41.303Z,3.90
2023-01-19T14:50:57.545Z,4.30
2023-01-19T14:54:04.746Z,4.30
2023-01-19T14:57:10.855Z,4.30
2023-01-19T15:00:17.245Z,3.80
2023-01-19T15:03:19.005Z,4.20
2023-01-19T15:06:21.085Z,5.00
2023-01-19T15:09:22.921Z,4.10
2023-01-19T15:12:26.165Z,4.20
2023-01-19T15:15:30.263Z,4.20
2023-01-19T15:18:31.784Z,3.80
2023-01-19T15:21:33.331Z,3.80
2023-01-19T15:24:35.033Z,3.80
2023-01-19T15:27:36.536Z,3.50
2023-01-19T15:30:38.190Z,3.80
2023-01-19T15:33:39.684Z,3.70
2023-01-19T15:36:41.807Z,3.70
2023-01-19T15:39:43.286Z,5.50
2023-01-19T15:42:44.838Z,3.60
2023-01-19T15:45:48.353Z,3.90
2023-01-19T15:48:50.487Z,4.00
2023-01-19T15:51:51.966Z,4.00
2023-01-19T15:54:53.428Z,3.40
2023-01-19T15:58:01.208Z,3.30
2023-01-19T16:01:02.807Z,3.40
2023-01-19T16:04:05.373Z,3.60
2023-01-19T16:07:06.860Z,3.60
2023-01-19T16:10:09.548Z,3.70
2023-01-19T16:13:11.549Z,3.00
2023-01-19T16:16:17.234Z,3.40
2023-01-19T16:19:19.111Z,2.30
2023-01-19T16:22:20.577Z,3.20
2023-01-19T16:25:23.397Z,3.50
2023-01-19T16:28:25.652Z,4.70
2023-01-19T16:31:29.819Z,3.30
2023-01-19T16:34:31.375Z,2.90
2023-01-19T16:37:32.921Z,3.10
2023-01-19T16:40:34.411Z,3.40
2023-01-19T16:43:35.886Z,3.00
2023-01-19T16:46:39.297Z,3.00
2023-01-19T16:49:40.818Z,3.10
2023-01-19T16:52:42.429Z,2.60
2023-01-19T16:55:44.019Z,2.90
2023-01-19T16:58:45.693Z,2.90
2023-01-19T17:01:47.853Z,3.10
2023-01-19T17:04:49.318Z,2.90
2023-01-19T17:07:52.870Z,2.80
2023-01-19T17:10:55.517Z,3.10
2023-01-19T17:14:05.269Z,3.00
2023-01-19T17:17:09.311Z,3.30
2023-01-19T17:20:11.503Z,3.30
2023-01-19T17:23:13.096Z,3.20
2023-01-19T17:26:14.992Z,3.20
2023-01-19T17:29:17.137Z,4.90
2023-01-19T17:32:18.708Z,3.10
2023-01-19T17:35:20.184Z,2.90
2023-01-19T17:38:21.660Z,3.30
2023-01-19T17:41:27.426Z,2.80
2023-01-19T17:44:29.043Z,3.10
2023-01-19T17:47:30.544Z,2.80
2023-01-19T17:50:32.628Z,3.00
2023-01-19T17:53:35.787Z,3.00
2023-01-19T17:56:38.480Z,3.30
2023-01-19T17:59:43.562Z,3.10
2023-01-19T18:02:45.158Z,3.30
2023-01-19T18:05:53.885Z,3.40
2023-01-19T18:08:56.749Z,3.10
2023-01-19T18:11:58.216Z,3.50
2023-01-19T18:14:59.763Z,3.30
2023-01-19T18:18:01.636Z,3.00
2023-01-19T18:21:07.515Z,3.20
2023-01-19T18:24:08.986Z,3.40
2023-01-19T18:27:10.583Z,3.40
2023-01-19T18:30:12.504Z,4.10
2023-01-19T18:33:14.218Z,3.30
2023-01-19T18:36:16.179Z,3.30
2023-01-19T18:39:17.716Z,2.90
2023-01-19T18:42:19.212Z,3.30
2023-01-19T18:45:20.698Z,3.50
2023-01-19T18:48:22.350Z,3.30
2023-01-19T18:51:23.830Z,2.90
2023-01-19T18:54:25.297Z,3.00
2023-01-19T18:57:26.991Z,3.20
2023-01-19T19:00:28.456Z,3.00
2023-01-19T19:03:30.763Z,3.00
2023-01-19T19:06:32.318Z,3.60
2023-01-19T19:09:33.892Z,2.70
2023-01-19T19:12:35.458Z,2.80
2023-01-19T19:15:36.980Z,2.50
2023-01-19T19:18:39.075Z,2.90
2023-01-19T19:21:40.956Z,2.90
2023-01-19T19:24:42.443Z,2.90
2023-01-19T19:27:45.351Z,3.10
2023-01-19T19:30:47.797Z,5.20
2023-01-19T19:33:50.667Z,2.70
2023-01-19T19:36:52.268Z,2.70
2023-01-19T19:39:55.655Z,3.20
2023-01-19T19:42:58.787Z,3.00
2023-01-19T19:46:01.574Z,2.90
2023-01-19T19:49:03.064Z,3.20
2023-01-19T19:52:04.631Z,3.70
2023-01-19T19:55:07.195Z,3.30
2023-01-19T19:58:08.698Z,3.00
2023-01-19T20:01:11.997Z,2.70
2023-01-19T20:04:14.042Z,3.00
2023-01-19T20:07:17.860Z,3.00
2023-01-19T20:10:19.589Z,3.60
2023-01-19T20:13:21.995Z,3.30
2023-01-19T20:16:23.578Z,3.00
2023-01-19T20:19:25.212Z,2.80
2023-01-19T20:22:26.699Z,3.00
2023-01-19T20:25:28.521Z,3.10
2023-01-19T20:28:30.030Z,3.20
2023-01-19T20:31:32.500Z,3.00
2023-01-19T20:34:35.497Z,3.30
2023-01-19T20:37:37.053Z,2.80
2023-01-19T20:40:38.651Z,2.80
2023-01-19T20:43:40.133Z,2.60
2023-01-19T20:46:41.989Z,2.90
2023-01-19T20:49:43.489Z,2.90
2023-01-19T20:52:45.012Z,2.70
2023-01-19T20:55:46.927Z,2.90
2023-01-19T20:58:48.402Z,3.50
2023-01-19T21:01:50.289Z,2.80
2023-01-19T21:04:54.535Z,2.90
2023-01-19T21:07:56.090Z,2.90
2023-01-19T21:10:57.921Z,2.40
2023-01-19T21:13:59.411Z,2.50
2023-01-19T21:17:00.949Z,2.80
2023-01-19T21:20:02.783Z,2.60
2023-01-19T21:23:04.294Z,3.00
2023-01-19T21:26:06.880Z,2.80
2023-01-19T21:29:13.816Z,2.70
2023-01-19T21:32:30.464Z,2.80
2023-01-19T21:35:31.965Z,2.90
2023-01-19T21:38:34.938Z,3.30
2023-01-19T21:41:37.919Z,2.60
2023-01-19T21:44:39.432Z,2.80
2023-01-19T21:47:41.057Z,3.10
2023-01-19T21:50:42.672Z,2.80
2023-01-19T21:53:44.146Z,3.20
2023-01-19T21:56:45.694Z,2.80
2023-01-19T21:59:47.181Z,2.70
2023-01-19T22:03:02.727Z,2.70
2023-01-19T22:06:06.191Z,2.30
2023-01-19T22:09:07.986Z,2.40
2023-01-19T22:12:10.769Z,2.60
2023-01-19T22:15:12.523Z,2.60
2023-01-19T22:18:14.237Z,2.40
2023-01-19T22:21:20.400Z,2.70
2023-01-19T22:24:21.884Z,3.10
2023-01-19T22:27:24.612Z,2.60
2023-01-19T22:30:26.294Z,2.40
2023-01-19T22:33:28.097Z,2.70
2023-01-19T22:36:30.623Z,2.60
2023-01-19T22:39:32.655Z,2.70
2023-01-19T22:42:34.125Z,2.80
2023-01-19T22:45:39.875Z,2.70
2023-01-19T22:48:41.410Z,3.80
2023-01-19T22:51:43.222Z,2.70
2023-01-19T22:54:44.675Z,2.90
2023-01-19T22:57:46.128Z,2.20
2023-01-19T23:00:47.593Z,2.70
2023-01-19T23:03:49.609Z,2.70
2023-01-19T23:06:51.488Z,2.40
2023-01-19T23:09:53.001Z,2.30
2023-01-19T23:12:54.468Z,2.50
2023-01-19T23:15:57.054Z,2.40
2023-01-19T23:18:58.663Z,2.10
2023-01-19T23:22:00.134Z,2.40
2023-01-19T23:25:01.615Z,2.50
2023-01-19T23:28:03.087Z,2.30
2023-01-19T23:31:18.436Z,2.30
2023-01-19T23:34:19.945Z,2.60
2023-01-19T23:37:21.403Z,2.30
2023-01-19T23:40:22.874Z,2.50
2023-01-19T23:43:24.330Z,1.90
2023-01-19T23:46:26.231Z,2.40
2023-01-19T23:49:27.800Z,2.30
2023-01-19T23:52:29.406Z,2.40
2023-01-19T23:55:30.866Z,2.60
2023-01-19T23:58:32.319Z,2.30
